WZZ67A ENTC-EDDH
Flight info
| Callsign | WZZ67A |
|---|---|
| Flight time | N/A |
| Altitude | 34000 |
| Route | AMIMO DCT AGLIX DCT NUDNI DCT VABOT DCT SOMUB DCT ARTOR/N0442F350 DCT AMRAK/N0441F340 DCT ALASA |
| Aircraft | A321/M-SDE3FGHIRWY/LB1 |
Departure
| Time | N/A |
|---|---|
| Airport | Tromsø Airport (ENTC) |
Arrival
| Time | 2026-04-24 20:05 |
|---|---|
| Airport | Hamburg Helmut Schmidt Airport (EDDH) |
| Time | Latitude | Longitude | Altitude | Speed | Heading |
|---|---|---|---|---|---|
| 2026-04-24 19:26 | 55.39188 | 10.12279 | 31395 ft | 434 kts | 193° |
| 2026-04-24 19:26 | 55.36222 | 10.11417 | 30927 ft | 431 kts | 193° |
| 2026-04-24 19:26 | 55.33280 | 10.10559 | 30646 ft | 423 kts | 193° |
| 2026-04-24 19:26 | 55.30403 | 10.09724 | 30376 ft | 416 kts | 193° |
| 2026-04-24 19:27 | 55.27564 | 10.08902 | 29965 ft | 411 kts | 193° |
| 2026-04-24 19:27 | 55.24754 | 10.08087 | 29489 ft | 408 kts | 193° |
| 2026-04-24 19:27 | 55.21961 | 10.07275 | 29009 ft | 406 kts | 193° |
| 2026-04-24 19:27 | 55.19186 | 10.06465 | 28542 ft | 403 kts | 193° |
| 2026-04-24 19:28 | 55.16423 | 10.05661 | 28088 ft | 401 kts | 193° |
| 2026-04-24 19:28 | 55.13680 | 10.04872 | 27651 ft | 399 kts | 193° |
| 2026-04-24 19:28 | 55.10947 | 10.04088 | 27223 ft | 397 kts | 193° |
| 2026-04-24 19:28 | 55.08227 | 10.03309 | 26809 ft | 395 kts | 193° |
| 2026-04-24 19:29 | 55.02830 | 10.01763 | 25984 ft | 391 kts | 193° |
| 2026-04-24 19:29 | 55.00156 | 10.00993 | 25574 ft | 389 kts | 193° |
| 2026-04-24 19:29 | 54.97488 | 10.00222 | 25169 ft | 387 kts | 193° |
| 2026-04-24 19:30 | 54.94839 | 9.99460 | 24769 ft | 385 kts | 193° |
| 2026-04-24 19:30 | 54.92188 | 9.98796 | 24369 ft | 385 kts | 185° |
| 2026-04-24 19:30 | 54.89511 | 9.99188 | 23977 ft | 387 kts | 172° |
| 2026-04-24 19:30 | 54.86871 | 10.00050 | 23530 ft | 386 kts | 172° |
| 2026-04-24 19:31 | 54.84239 | 10.00927 | 23078 ft | 384 kts | 172° |
| 2026-04-24 19:31 | 54.81627 | 10.01801 | 22625 ft | 381 kts | 172° |
| 2026-04-24 19:31 | 54.79012 | 10.02671 | 21941 ft | 386 kts | 172° |
| 2026-04-24 19:31 | 54.76373 | 10.03541 | 21370 ft | 387 kts | 172° |
| 2026-04-24 19:32 | 54.73728 | 10.04412 | 20889 ft | 386 kts | 172° |
| 2026-04-24 19:32 | 54.71100 | 10.05277 | 20435 ft | 384 kts | 172° |
| 2026-04-24 19:32 | 54.68488 | 10.06138 | 19997 ft | 382 kts | 172° |
| 2026-04-24 19:32 | 54.65887 | 10.06997 | 19570 ft | 379 kts | 173° |
| 2026-04-24 19:33 | 54.63354 | 10.07829 | 19308 ft | 372 kts | 173° |
| 2026-04-24 19:33 | 54.60847 | 10.08652 | 19180 ft | 361 kts | 173° |
| 2026-04-24 19:33 | 54.58419 | 10.09447 | 19059 ft | 349 kts | 173° |
| 2026-04-24 19:33 | 54.56067 | 10.10217 | 18941 ft | 339 kts | 173° |
| 2026-04-24 19:34 | 54.53787 | 10.10957 | 18822 ft | 328 kts | 173° |
| 2026-04-24 19:34 | 54.51625 | 10.12056 | 18698 ft | 323 kts | 154° |
| 2026-04-24 19:34 | 54.49878 | 10.14427 | 18482 ft | 319 kts | 130° |
| 2026-04-24 19:34 | 54.48830 | 10.17743 | 18032 ft | 316 kts | 103° |
| 2026-04-24 19:35 | 54.48464 | 10.20940 | 17622 ft | 313 kts | 96° |
| 2026-04-24 19:35 | 54.48166 | 10.24647 | 17162 ft | 313 kts | 94° |
| 2026-04-24 19:35 | 54.47878 | 10.28345 | 16735 ft | 311 kts | 94° |
| 2026-04-24 19:35 | 54.47586 | 10.32022 | 16323 ft | 309 kts | 94° |
| 2026-04-24 19:36 | 54.47291 | 10.35671 | 15919 ft | 307 kts | 94° |
| 2026-04-24 19:36 | 54.46992 | 10.39302 | 15518 ft | 306 kts | 94° |
| 2026-04-24 19:36 | 54.46689 | 10.42906 | 15124 ft | 304 kts | 94° |
| 2026-04-24 19:36 | 54.46385 | 10.46466 | 14741 ft | 303 kts | 94° |
| 2026-04-24 19:37 | 54.46177 | 10.48865 | 14485 ft | 302 kts | 94° |
| 2026-04-24 19:37 | 54.45864 | 10.52415 | 14109 ft | 300 kts | 95° |
| 2026-04-24 19:37 | 54.45547 | 10.55946 | 13717 ft | 298 kts | 94° |
| 2026-04-24 19:37 | 54.45226 | 10.59462 | 13306 ft | 297 kts | 95° |
| 2026-04-24 19:38 | 54.44904 | 10.62955 | 12889 ft | 295 kts | 95° |
| 2026-04-24 19:38 | 54.44580 | 10.66419 | 12512 ft | 293 kts | 95° |
| 2026-04-24 19:38 | 54.44255 | 10.69856 | 12129 ft | 291 kts | 95° |
| 2026-04-24 19:38 | 54.43928 | 10.73270 | 11754 ft | 289 kts | 95° |
| 2026-04-24 19:39 | 54.43599 | 10.76667 | 11377 ft | 287 kts | 95° |
| 2026-04-24 19:39 | 54.43269 | 10.80035 | 11086 ft | 284 kts | 95° |
| 2026-04-24 19:39 | 54.42938 | 10.83383 | 11082 ft | 286 kts | 95° |
| 2026-04-24 19:39 | 54.42606 | 10.86752 | 11079 ft | 286 kts | 95° |
| 2026-04-24 19:40 | 54.42274 | 10.90123 | 11079 ft | 286 kts | 95° |
| 2026-04-24 19:40 | 54.41940 | 10.93541 | 11091 ft | 297 kts | 95° |
| 2026-04-24 19:40 | 54.41507 | 10.97051 | 11048 ft | 308 kts | 107° |
| 2026-04-24 19:40 | 54.40352 | 11.00264 | 11067 ft | 325 kts | 134° |
| 2026-04-24 19:41 | 54.38483 | 11.02428 | 11077 ft | 326 kts | 162° |
| 2026-04-24 19:41 | 54.36287 | 11.03064 | 11079 ft | 319 kts | 188° |
| 2026-04-24 19:41 | 54.34194 | 11.02146 | 11077 ft | 307 kts | 214° |
| 2026-04-24 19:41 | 54.32544 | 10.99989 | 11084 ft | 294 kts | 236° |
| 2026-04-24 19:42 | 54.31245 | 10.97300 | 11077 ft | 293 kts | 237° |
| 2026-04-24 19:42 | 54.29952 | 10.94601 | 11083 ft | 293 kts | 237° |
| 2026-04-24 19:42 | 54.28654 | 10.91901 | 11083 ft | 294 kts | 237° |
| 2026-04-24 19:42 | 54.27356 | 10.89199 | 11087 ft | 294 kts | 237° |
| 2026-04-24 19:43 | 54.26058 | 10.86499 | 11089 ft | 294 kts | 237° |
| 2026-04-24 19:43 | 54.24756 | 10.83803 | 11092 ft | 294 kts | 237° |
| 2026-04-24 19:43 | 54.23452 | 10.81110 | 11091 ft | 294 kts | 237° |
| 2026-04-24 19:43 | 54.22146 | 10.78419 | 11097 ft | 294 kts | 237° |
| 2026-04-24 19:44 | 54.20839 | 10.75726 | 11096 ft | 294 kts | 237° |
| 2026-04-24 19:44 | 54.19535 | 10.73038 | 11101 ft | 294 kts | 237° |
| 2026-04-24 19:44 | 54.18233 | 10.70350 | 11100 ft | 294 kts | 237° |
| 2026-04-24 19:44 | 54.16928 | 10.67665 | 11103 ft | 294 kts | 237° |
| 2026-04-24 19:45 | 54.15784 | 10.65314 | 11105 ft | 294 kts | 237° |
| 2026-04-24 19:45 | 54.14475 | 10.62629 | 11107 ft | 294 kts | 236° |
| 2026-04-24 19:45 | 54.13308 | 10.60242 | 11112 ft | 294 kts | 236° |
| 2026-04-24 19:45 | 54.11993 | 10.57551 | 11106 ft | 294 kts | 236° |
| 2026-04-24 19:46 | 54.10681 | 10.54868 | 11113 ft | 294 kts | 236° |
| 2026-04-24 19:46 | 54.09373 | 10.52189 | 11108 ft | 294 kts | 236° |
| 2026-04-24 19:46 | 54.08062 | 10.49502 | 11111 ft | 294 kts | 238° |
| 2026-04-24 19:46 | 54.06919 | 10.46668 | 11004 ft | 289 kts | 244° |
| 2026-04-24 19:47 | 54.05860 | 10.43778 | 10649 ft | 287 kts | 244° |
| 2026-04-24 19:47 | 54.04813 | 10.40894 | 10297 ft | 286 kts | 244° |
| 2026-04-24 19:47 | 54.03770 | 10.38019 | 9946 ft | 285 kts | 244° |
| 2026-04-24 19:47 | 54.02731 | 10.35156 | 9576 ft | 284 kts | 244° |
| 2026-04-24 19:48 | 54.01700 | 10.32307 | 9214 ft | 282 kts | 244° |
| 2026-04-24 19:48 | 54.00674 | 10.29467 | 8854 ft | 281 kts | 244° |
| 2026-04-24 19:48 | 53.98650 | 10.23820 | 8147 ft | 278 kts | 244° |
| 2026-04-24 19:49 | 53.97333 | 10.17947 | 7606 ft | 256 kts | 271° |
| 2026-04-24 19:49 | 53.96789 | 10.12149 | 7355 ft | 240 kts | 264° |
| 2026-04-24 19:50 | 53.95850 | 10.04029 | 6971 ft | 232 kts | 264° |
| 2026-04-24 19:50 | 53.95541 | 10.01330 | 6980 ft | 233 kts | 264° |
| 2026-04-24 19:51 | 53.94926 | 9.95932 | 6988 ft | 233 kts | 264° |
| 2026-04-24 19:51 | 53.94619 | 9.93231 | 6986 ft | 232 kts | 264° |
| 2026-04-24 19:52 | 53.93628 | 9.88012 | 6984 ft | 244 kts | 235° |
| 2026-04-24 19:52 | 53.92213 | 9.86329 | 6990 ft | 257 kts | 204° |
| 2026-04-24 19:52 | 53.90418 | 9.86027 | 6989 ft | 266 kts | 173° |
| 2026-04-24 19:52 | 53.88713 | 9.87240 | 6992 ft | 270 kts | 142° |
| 2026-04-24 19:53 | 53.87546 | 9.89669 | 6988 ft | 266 kts | 112° |
| 2026-04-24 19:53 | 53.86886 | 9.92594 | 6990 ft | 265 kts | 105° |
| 2026-04-24 19:53 | 53.85740 | 9.98533 | 6988 ft | 265 kts | 104° |
| 2026-04-24 19:54 | 53.85169 | 10.01503 | 6987 ft | 265 kts | 104° |
| 2026-04-24 19:54 | 53.84600 | 10.04469 | 6985 ft | 265 kts | 104° |
| 2026-04-24 19:54 | 53.84055 | 10.07449 | 6986 ft | 264 kts | 98° |
| 2026-04-24 19:54 | 53.83826 | 10.10502 | 6987 ft | 260 kts | 86° |
| 2026-04-24 19:55 | 53.83824 | 10.12551 | 6975 ft | 257 kts | 84° |
| 2026-04-24 19:55 | 53.83847 | 10.16542 | 6512 ft | 255 kts | 84° |
| 2026-04-24 19:55 | 53.83867 | 10.19531 | 6128 ft | 254 kts | 84° |
| 2026-04-24 19:55 | 53.83887 | 10.22502 | 6006 ft | 252 kts | 84° |
| 2026-04-24 19:56 | 53.84219 | 10.25345 | 6007 ft | 243 kts | 57° |
| 2026-04-24 19:56 | 53.85291 | 10.27425 | 6001 ft | 231 kts | 30° |
| 2026-04-24 19:56 | 53.86644 | 10.28872 | 5993 ft | 230 kts | 25° |
| 2026-04-24 19:56 | 53.88028 | 10.30239 | 5997 ft | 230 kts | 24° |
| 2026-04-24 19:57 | 53.89411 | 10.31592 | 5994 ft | 230 kts | 24° |
| 2026-04-24 19:57 | 53.90735 | 10.33123 | 5983 ft | 236 kts | 41° |
| 2026-04-24 19:57 | 53.91526 | 10.35614 | 5972 ft | 247 kts | 71° |
| 2026-04-24 19:57 | 53.91501 | 10.38545 | 5593 ft | 256 kts | 103° |
| 2026-04-24 19:58 | 53.90629 | 10.41188 | 5183 ft | 261 kts | 130° |
| 2026-04-24 19:58 | 53.89199 | 10.43052 | 4785 ft | 261 kts | 155° |
| 2026-04-24 19:58 | 53.87468 | 10.43832 | 4384 ft | 256 kts | 180° |
| 2026-04-24 19:58 | 53.85738 | 10.43441 | 4014 ft | 247 kts | 205° |
| 2026-04-24 19:59 | 53.84277 | 10.42026 | 3995 ft | 240 kts | 226° |
| 2026-04-24 19:59 | 53.83164 | 10.39966 | 3997 ft | 237 kts | 237° |
| 2026-04-24 19:59 | 53.82120 | 10.37808 | 3992 ft | 237 kts | 237° |
| 2026-04-24 19:59 | 53.81076 | 10.35654 | 3998 ft | 237 kts | 237° |
| 2026-04-24 20:00 | 53.80028 | 10.33499 | 3993 ft | 237 kts | 237° |
| 2026-04-24 20:00 | 53.78981 | 10.31349 | 3997 ft | 237 kts | 237° |
| 2026-04-24 20:00 | 53.77938 | 10.29212 | 4002 ft | 228 kts | 237° |
| 2026-04-24 20:00 | 53.76987 | 10.27277 | 3979 ft | 201 kts | 238° |
| 2026-04-24 20:01 | 53.76092 | 10.25433 | 3979 ft | 199 kts | 238° |
| 2026-04-24 20:01 | 53.75252 | 10.23719 | 3742 ft | 185 kts | 239° |
| 2026-04-24 20:01 | 53.74447 | 10.22065 | 3490 ft | 183 kts | 239° |
| 2026-04-24 20:01 | 53.73632 | 10.20394 | 3229 ft | 183 kts | 239° |
| 2026-04-24 20:02 | 53.73087 | 10.19280 | 3055 ft | 182 kts | 239° |
| 2026-04-24 20:02 | 53.72024 | 10.17108 | 2736 ft | 180 kts | 239° |
| 2026-04-24 20:02 | 53.71231 | 10.15489 | 2495 ft | 178 kts | 239° |
| 2026-04-24 20:02 | 53.70439 | 10.13876 | 2254 ft | 176 kts | 238° |
| 2026-04-24 20:03 | 53.69665 | 10.12300 | 2018 ft | 173 kts | 237° |
| 2026-04-24 20:03 | 53.68909 | 10.10760 | 1779 ft | 168 kts | 237° |
| 2026-04-24 20:03 | 53.68168 | 10.09251 | 1532 ft | 166 kts | 237° |
| 2026-04-24 20:03 | 53.67434 | 10.07757 | 1315 ft | 165 kts | 237° |
| 2026-04-24 20:04 | 53.66697 | 10.06257 | 1071 ft | 166 kts | 237° |
| 2026-04-24 20:04 | 53.65969 | 10.04778 | 827 ft | 163 kts | 236° |
| 2026-04-24 20:04 | 53.65246 | 10.03309 | 599 ft | 162 kts | 233° |
| 2026-04-24 20:04 | 53.64522 | 10.01838 | 385 ft | 163 kts | 233° |
| 2026-04-24 20:05 | 53.63844 | 10.00491 | 165 ft | 138 kts | 235° |
| 2026-04-24 20:05 | 53.63277 | 9.99339 | 47 ft | 115 kts | 234° |
| 2026-04-24 20:05 | 53.62950 | 9.98644 | 45 ft | 22 kts | 226° |
| 2026-04-24 20:05 | 53.62888 | 9.98548 | 44 ft | 11 kts | 212° |
| 2026-04-24 20:06 | 53.62810 | 9.98502 | 44 ft | 13 kts | 192° |
| 2026-04-24 20:06 | 53.62724 | 9.98483 | 46 ft | 11 kts | 169° |
| 2026-04-24 20:06 | 53.62707 | 9.98582 | 47 ft | 10 kts | 60° |
| 2026-04-24 20:06 | 53.62752 | 9.98680 | 47 ft | 11 kts | 51° |
| 2026-04-24 20:07 | 53.62788 | 9.98749 | 47 ft | 12 kts | 50° |
| 2026-04-24 20:07 | 53.62862 | 9.98900 | 47 ft | 13 kts | 50° |
| 2026-04-24 20:07 | 53.62924 | 9.99024 | 47 ft | 14 kts | 49° |
| 2026-04-24 20:07 | 53.62988 | 9.99158 | 47 ft | 15 kts | 51° |
| 2026-04-24 20:08 | 53.63007 | 9.99196 | 47 ft | 13 kts | 48° |
| 2026-04-24 20:08 | 53.63059 | 9.99303 | 47 ft | 0 kts | 52° |
| 2026-04-24 20:09 | 53.63063 | 9.99313 | 47 ft | 4 kts | 55° |
| 2026-04-24 20:09 | 53.63081 | 9.99356 | 47 ft | 0 kts | 56° |
| 2026-04-24 20:09 | 53.63086 | 9.99371 | 47 ft | 7 kts | 56° |
| 2026-04-24 20:09 | 53.63127 | 9.99472 | 46 ft | 12 kts | 56° |
| 2026-04-24 20:10 | 53.63180 | 9.99582 | 47 ft | 12 kts | 49° |
| 2026-04-24 20:10 | 53.63217 | 9.99661 | 48 ft | 0 kts | 52° |
| 2026-04-24 20:10 | 53.63220 | 9.99667 | 48 ft | 5 kts | 51° |
| 2026-04-24 20:11 | 53.63318 | 9.99839 | 48 ft | 25 kts | 50° |
| 2026-04-24 20:11 | 53.63424 | 10.00068 | 48 ft | 21 kts | 72° |
| 2026-04-24 20:11 | 53.63392 | 10.00208 | 48 ft | 12 kts | 143° |
| 2026-04-24 20:11 | 53.63308 | 10.00236 | 48 ft | 13 kts | 176° |
| 2026-04-24 20:12 | 53.63241 | 10.00262 | 46 ft | 5 kts | 109° |
| 2026-04-24 20:12 | 53.63244 | 10.00331 | 48 ft | 7 kts | 85° |
| 2026-04-24 20:12 | 53.63244 | 10.00346 | 48 ft | 0 kts | 86° |
| 2026-04-24 20:14 | 53.63245 | 10.00349 | 48 ft | 0 kts | 86° |